sensor_id;sensor_type;location;lat;lon;timestamp;pressure;altitude;pressure_sealevel;temperature;humidity
46111;BME280;31849;55.992;37.252;2024-03-07T00:04:47;99972.34;;;-9.44;45.73
46111;BME280;31849;55.992;37.252;2024-03-07T00:09:53;99963.03;;;-9.45;46.01
46111;BME280;31849;55.992;37.252;2024-03-07T00:14:58;99967.94;;;-9.46;46.68
46111;BME280;31849;55.992;37.252;2024-03-07T00:20:05;99973.84;;;-9.46;46.43
46111;BME280;31849;55.992;37.252;2024-03-07T00:25:13;99973.94;;;-9.55;45.97
46111;BME280;31849;55.992;37.252;2024-03-07T00:30:22;99965.38;;;-9.57;46.31
46111;BME280;31849;55.992;37.252;2024-03-07T00:35:26;99952.91;;;-9.65;46.92
46111;BME280;31849;55.992;37.252;2024-03-07T00:40:32;99962.19;;;-9.75;47.13
46111;BME280;31849;55.992;37.252;2024-03-07T00:45:36;99948.72;;;-9.75;46.94
46111;BME280;31849;55.992;37.252;2024-03-07T00:50:40;99947.69;;;-9.77;46.43
46111;BME280;31849;55.992;37.252;2024-03-07T00:55:46;99947.56;;;-9.79;47.33
46111;BME280;31849;55.992;37.252;2024-03-07T01:00:50;99947.19;;;-9.83;47.32
46111;BME280;31849;55.992;37.252;2024-03-07T01:05:58;99948.44;;;-9.78;47.00
46111;BME280;31849;55.992;37.252;2024-03-07T01:11:03;99930.56;;;-9.81;46.68
46111;BME280;31849;55.992;37.252;2024-03-07T01:16:12;99934.59;;;-9.83;47.43
46111;BME280;31849;55.992;37.252;2024-03-07T01:21:16;99932.31;;;-9.91;47.22
46111;BME280;31849;55.992;37.252;2024-03-07T01:26:22;99930.03;;;-9.87;47.25
46111;BME280;31849;55.992;37.252;2024-03-07T01:31:27;99921.25;;;-9.93;46.50
46111;BME280;31849;55.992;37.252;2024-03-07T01:36:31;99918.06;;;-10.00;46.98
46111;BME280;31849;55.992;37.252;2024-03-07T01:41:36;99911.09;;;-10.13;47.23
46111;BME280;31849;55.992;37.252;2024-03-07T01:46:40;99918.97;;;-10.19;47.71
46111;BME280;31849;55.992;37.252;2024-03-07T01:51:44;99912.44;;;-10.27;47.75
46111;BME280;31849;55.992;37.252;2024-03-07T01:56:53;99911.78;;;-10.35;48.23
46111;BME280;31849;55.992;37.252;2024-03-07T02:01:57;99908.38;;;-10.35;47.79
46111;BME280;31849;55.992;37.252;2024-03-07T02:07:04;99910.38;;;-10.31;47.92
46111;BME280;31849;55.992;37.252;2024-03-07T02:12:10;99910.03;;;-10.36;47.64
46111;BME280;31849;55.992;37.252;2024-03-07T02:17:14;99908.59;;;-10.43;47.87
46111;BME280;31849;55.992;37.252;2024-03-07T02:22:20;99906.22;;;-10.41;47.45
46111;BME280;31849;55.992;37.252;2024-03-07T02:27:24;99907.72;;;-10.43;47.76
46111;BME280;31849;55.992;37.252;2024-03-07T02:32:28;99896.22;;;-10.50;48.20
46111;BME280;31849;55.992;37.252;2024-03-07T02:37:33;99904.47;;;-10.80;48.51
46111;BME280;31849;55.992;37.252;2024-03-07T02:42:37;99897.53;;;-11.02;48.74
46111;BME280;31849;55.992;37.252;2024-03-07T02:47:40;99899.44;;;-10.99;48.44
46111;BME280;31849;55.992;37.252;2024-03-07T02:52:48;99893.78;;;-11.16;49.31
46111;BME280;31849;55.992;37.252;2024-03-07T02:57:52;99903.50;;;-11.10;48.74
46111;BME280;31849;55.992;37.252;2024-03-07T03:02:56;99884.09;;;-11.02;48.38
46111;BME280;31849;55.992;37.252;2024-03-07T03:08:01;99887.03;;;-10.98;48.71
46111;BME280;31849;55.992;37.252;2024-03-07T03:13:09;99879.22;;;-11.01;48.91
46111;BME280;31849;55.992;37.252;2024-03-07T03:18:13;99882.06;;;-11.06;48.76
46111;BME280;31849;55.992;37.252;2024-03-07T03:23:19;99882.59;;;-11.00;48.25
46111;BME280;31849;55.992;37.252;2024-03-07T03:28:24;99880.84;;;-11.01;48.18
46111;BME280;31849;55.992;37.252;2024-03-07T03:33:28;99881.59;;;-11.02;49.26
46111;BME280;31849;55.992;37.252;2024-03-07T03:38:34;99881.88;;;-10.99;49.14
46111;BME280;31849;55.992;37.252;2024-03-07T03:43:38;99875.59;;;-10.94;49.14
46111;BME280;31849;55.992;37.252;2024-03-07T03:48:42;99867.41;;;-11.02;48.76
46111;BME280;31849;55.992;37.252;2024-03-07T03:53:48;99872.47;;;-11.10;49.26
46111;BME280;31849;55.992;37.252;2024-03-07T03:58:52;99867.59;;;-11.09;49.08
46111;BME280;31849;55.992;37.252;2024-03-07T04:09:19;99859.72;;;-11.22;48.87
46111;BME280;31849;55.992;37.252;2024-03-07T04:14:24;99852.94;;;-11.23;48.90
46111;BME280;31849;55.992;37.252;2024-03-07T04:19:28;99855.31;;;-11.06;48.60
46111;BME280;31849;55.992;37.252;2024-03-07T04:24:36;99862.19;;;-10.94;48.68
46111;BME280;31849;55.992;37.252;2024-03-07T04:29:40;99860.00;;;-10.81;49.11
46111;BME280;31849;55.992;37.252;2024-03-07T04:34:45;99852.88;;;-10.76;48.83
46111;BME280;31849;55.992;37.252;2024-03-07T04:39:50;99854.81;;;-10.64;49.00
46111;BME280;31849;55.992;37.252;2024-03-07T04:44:54;99851.88;;;-10.49;48.75
46111;BME280;31849;55.992;37.252;2024-03-07T04:49:59;99846.88;;;-10.29;48.53
46111;BME280;31849;55.992;37.252;2024-03-07T04:55:06;99840.53;;;-10.15;48.19
46111;BME280;31849;55.992;37.252;2024-03-07T05:00:14;99849.41;;;-9.89;47.97
46111;BME280;31849;55.992;37.252;2024-03-07T05:05:23;99849.97;;;-9.62;48.24
46111;BME280;31849;55.992;37.252;2024-03-07T05:10:29;99844.69;;;-9.45;47.93
46111;BME280;31849;55.992;37.252;2024-03-07T05:15:34;99850.22;;;-9.28;48.09
46111;BME280;31849;55.992;37.252;2024-03-07T05:20:42;99820.38;;;-2.06;38.54
46111;BME280;31849;55.992;37.252;2024-03-07T05:25:47;99816.75;;;-0.58;36.40
46111;BME280;31849;55.992;37.252;2024-03-07T05:30:52;99812.09;;;-3.67;41.11
46111;BME280;31849;55.992;37.252;2024-03-07T05:35:56;99801.69;;;2.60;34.11
46111;BME280;31849;55.992;37.252;2024-03-07T05:41:18;99795.22;;;4.08;31.21
46111;BME280;31849;55.992;37.252;2024-03-07T05:46:22;99793.47;;;2.22;33.36
46111;BME280;31849;55.992;37.252;2024-03-07T05:51:26;99800.56;;;0.75;35.15
46111;BME280;31849;55.992;37.252;2024-03-07T05:56:31;99798.34;;;-0.87;36.33
46111;BME280;31849;55.992;37.252;2024-03-07T06:01:35;99788.34;;;-2.01;37.82
46111;BME280;31849;55.992;37.252;2024-03-07T06:06:39;99795.28;;;-2.15;38.22
46111;BME280;31849;55.992;37.252;2024-03-07T06:11:45;99749.25;;;4.52;30.71
46111;BME280;31849;55.992;37.252;2024-03-07T06:16:49;99779.78;;;9.13;25.11
46111;BME280;31849;55.992;37.252;2024-03-07T06:21:54;99773.78;;;13.29;21.34
46111;BME280;31849;55.992;37.252;2024-03-07T06:27:00;99768.13;;;15.62;19.06
46111;BME280;31849;55.992;37.252;2024-03-07T06:32:07;99764.28;;;18.39;16.80
46111;BME280;31849;55.992;37.252;2024-03-07T06:37:11;99759.22;;;19.44;15.56
46111;BME280;31849;55.992;37.252;2024-03-07T06:42:16;99757.31;;;20.47;14.69
46111;BME280;31849;55.992;37.252;2024-03-07T06:47:20;99754.59;;;21.99;13.42
46111;BME280;31849;55.992;37.252;2024-03-07T06:52:24;99749.50;;;23.26;12.16
46111;BME280;31849;55.992;37.252;2024-03-07T06:57:31;99738.81;;;22.17;12.20
46111;BME280;31849;55.992;37.252;2024-03-07T07:02:34;99738.88;;;22.53;11.71
46111;BME280;31849;55.992;37.252;2024-03-07T07:07:38;99734.03;;;23.87;11.55
46111;BME280;31849;55.992;37.252;2024-03-07T07:12:46;99733.09;;;23.70;10.91
46111;BME280;31849;55.992;37.252;2024-03-07T07:17:50;99727.41;;;25.07;10.07
46111;BME280;31849;55.992;37.252;2024-03-07T07:22:55;99729.38;;;26.37;9.80
46111;BME280;31849;55.992;37.252;2024-03-07T07:28:02;99725.00;;;27.83;8.92
46111;BME280;31849;55.992;37.252;2024-03-07T07:33:07;99722.19;;;28.23;8.67
46111;BME280;31849;55.992;37.252;2024-03-07T07:38:11;99709.88;;;29.30;8.54
46111;BME280;31849;55.992;37.252;2024-03-07T07:43:19;99707.66;;;29.71;8.17
46111;BME280;31849;55.992;37.252;2024-03-07T07:48:38;99683.84;;;29.33;7.70
46111;BME280;31849;55.992;37.252;2024-03-07T07:53:42;99689.94;;;29.35;8.01
46111;BME280;31849;55.992;37.252;2024-03-07T07:58:48;99682.56;;;27.27;8.83
46111;BME280;31849;55.992;37.252;2024-03-07T08:03:54;99683.66;;;26.97;9.17
46111;BME280;31849;55.992;37.252;2024-03-07T08:08:58;99673.34;;;27.18;9.23
46111;BME280;31849;55.992;37.252;2024-03-07T08:14:03;99673.03;;;26.14;9.13
46111;BME280;31849;55.992;37.252;2024-03-07T08:19:08;99673.41;;;26.37;9.18
46111;BME280;31849;55.992;37.252;2024-03-07T08:24:13;99671.66;;;26.50;8.93
46111;BME280;31849;55.992;37.252;2024-03-07T08:29:19;99659.75;;;25.71;9.24
46111;BME280;31849;55.992;37.252;2024-03-07T08:34:23;99655.19;;;26.43;8.97
46111;BME280;31849;55.992;37.252;2024-03-07T08:39:28;99651.56;;;25.74;9.61
46111;BME280;31849;55.992;37.252;2024-03-07T08:44:34;99654.50;;;25.10;9.73
46111;BME280;31849;55.992;37.252;2024-03-07T08:49:38;99637.59;;;24.02;10.19
46111;BME280;31849;55.992;37.252;2024-03-07T08:54:42;99643.34;;;22.39;11.00
46111;BME280;31849;55.992;37.252;2024-03-07T08:59:49;99633.03;;;20.06;12.34
46111;BME280;31849;55.992;37.252;2024-03-07T09:04:55;99621.19;;;16.50;14.38
46111;BME280;31849;55.992;37.252;2024-03-07T09:09:59;99627.94;;;13.73;16.55
46111;BME280;31849;55.992;37.252;2024-03-07T09:15:07;99625.94;;;12.12;17.70
46111;BME280;31849;55.992;37.252;2024-03-07T09:20:12;99629.78;;;10.64;19.12
46111;BME280;31849;55.992;37.252;2024-03-07T09:25:18;99629.53;;;9.55;20.50
46111;BME280;31849;55.992;37.252;2024-03-07T09:30:23;99631.75;;;8.87;20.62
46111;BME280;31849;55.992;37.252;2024-03-07T09:35:29;99631.25;;;8.34;21.71
46111;BME280;31849;55.992;37.252;2024-03-07T09:40:36;99618.00;;;7.99;21.76
46111;BME280;31849;55.992;37.252;2024-03-07T09:45:42;99617.91;;;7.20;22.47
46111;BME280;31849;55.992;37.252;2024-03-07T09:50:50;99615.16;;;7.10;23.06
46111;BME280;31849;55.992;37.252;2024-03-07T09:55:56;99620.44;;;6.59;24.30
46111;BME280;31849;55.992;37.252;2024-03-07T10:01:02;99575.25;;;6.32;24.06
46111;BME280;31849;55.992;37.252;2024-03-07T10:06:09;99614.88;;;6.36;23.73
46111;BME280;31849;55.992;37.252;2024-03-07T10:11:13;99611.72;;;5.61;25.21
46111;BME280;31849;55.992;37.252;2024-03-07T10:16:18;99612.88;;;5.75;25.92
46111;BME280;31849;55.992;37.252;2024-03-07T10:21:22;99602.16;;;5.54;25.29
46111;BME280;31849;55.992;37.252;2024-03-07T10:26:27;99610.63;;;5.48;25.77
46111;BME280;31849;55.992;37.252;2024-03-07T10:31:32;99610.06;;;5.20;26.48
46111;BME280;31849;55.992;37.252;2024-03-07T10:36:40;99604.16;;;5.26;26.55
46111;BME280;31849;55.992;37.252;2024-03-07T10:41:46;99596.97;;;5.11;26.31
46111;BME280;31849;55.992;37.252;2024-03-07T10:46:56;99594.81;;;4.91;26.55
46111;BME280;31849;55.992;37.252;2024-03-07T10:52:04;99588.63;;;4.83;27.19
46111;BME280;31849;55.992;37.252;2024-03-07T10:57:20;99582.94;;;4.62;26.50
46111;BME280;31849;55.992;37.252;2024-03-07T11:02:33;99565.72;;;4.22;28.03
46111;BME280;31849;55.992;37.252;2024-03-07T11:07:42;99565.53;;;4.15;27.93
46111;BME280;31849;55.992;37.252;2024-03-07T11:12:48;99561.53;;;4.26;27.88
46111;BME280;31849;55.992;37.252;2024-03-07T11:17:55;99557.81;;;4.15;27.87
46111;BME280;31849;55.992;37.252;2024-03-07T11:22:59;99560.47;;;4.18;28.11
46111;BME280;31849;55.992;37.252;2024-03-07T11:28:05;99559.38;;;4.10;27.88
46111;BME280;31849;55.992;37.252;2024-03-07T11:33:11;99556.50;;;3.97;28.43
46111;BME280;31849;55.992;37.252;2024-03-07T11:38:19;99537.59;;;4.30;28.11
46111;BME280;31849;55.992;37.252;2024-03-07T11:43:27;99538.75;;;4.43;28.20
46111;BME280;31849;55.992;37.252;2024-03-07T11:48:33;99541.19;;;4.37;27.67
46111;BME280;31849;55.992;37.252;2024-03-07T11:53:38;99527.41;;;4.35;28.43
46111;BME280;31849;55.992;37.252;2024-03-07T11:58:43;99530.31;;;4.49;28.57
46111;BME280;31849;55.992;37.252;2024-03-07T12:03:49;99523.84;;;4.66;28.50
46111;BME280;31849;55.992;37.252;2024-03-07T12:08:58;99505.09;;;4.73;28.11
46111;BME280;31849;55.992;37.252;2024-03-07T12:14:04;99509.88;;;4.56;28.35
46111;BME280;31849;55.992;37.252;2024-03-07T12:19:10;99510.66;;;4.52;28.76
46111;BME280;31849;55.992;37.252;2024-03-07T12:24:15;99507.84;;;4.80;29.24
46111;BME280;31849;55.992;37.252;2024-03-07T12:29:25;99495.81;;;4.80;28.40
46111;BME280;31849;55.992;37.252;2024-03-07T12:34:31;99503.81;;;4.94;28.59
46111;BME280;31849;55.992;37.252;2024-03-07T12:39:41;99463.16;;;4.79;27.75
46111;BME280;31849;55.992;37.252;2024-03-07T12:44:50;99481.72;;;4.64;28.77
46111;BME280;31849;55.992;37.252;2024-03-07T12:49:55;99466.91;;;4.54;28.92
46111;BME280;31849;55.992;37.252;2024-03-07T12:55:01;99480.75;;;4.57;28.79
46111;BME280;31849;55.992;37.252;2024-03-07T13:00:10;99482.19;;;4.46;29.34
46111;BME280;31849;55.992;37.252;2024-03-07T13:05:22;99486.97;;;4.29;29.58
46111;BME280;31849;55.992;37.252;2024-03-07T13:10:28;99476.16;;;4.08;29.29
46111;BME280;31849;55.992;37.252;2024-03-07T13:15:33;99473.78;;;3.80;29.85
46111;BME280;31849;55.992;37.252;2024-03-07T13:20:41;99473.56;;;3.73;30.19
46111;BME280;31849;55.992;37.252;2024-03-07T13:25:45;99471.59;;;3.61;29.94
46111;BME280;31849;55.992;37.252;2024-03-07T13:30:51;99471.38;;;3.53;29.97
46111;BME280;31849;55.992;37.252;2024-03-07T13:36:17;99471.56;;;3.27;30.43
46111;BME280;31849;55.992;37.252;2024-03-07T13:41:25;99462.75;;;3.19;30.34
46111;BME280;31849;55.992;37.252;2024-03-07T13:46:31;99471.47;;;2.94;30.67
46111;BME280;31849;55.992;37.252;2024-03-07T13:51:53;99463.66;;;2.89;31.29
46111;BME280;31849;55.992;37.252;2024-03-07T13:57:15;99467.75;;;2.83;31.59
46111;BME280;31849;55.992;37.252;2024-03-07T14:02:47;99470.66;;;2.64;31.38
46111;BME280;31849;55.992;37.252;2024-03-07T14:13:59;99471.88;;;2.49;31.51
46111;BME280;31849;55.992;37.252;2024-03-07T14:25:07;99469.16;;;2.15;32.31
46111;BME280;31849;55.992;37.252;2024-03-07T14:30:36;99461.88;;;2.02;33.36
46111;BME280;31849;55.992;37.252;2024-03-07T14:36:03;99464.63;;;1.81;32.80
46111;BME280;31849;55.992;37.252;2024-03-07T14:41:11;99448.28;;;1.51;33.25
46111;BME280;31849;55.992;37.252;2024-03-07T14:46:17;99461.53;;;1.39;33.32
46111;BME280;31849;55.992;37.252;2024-03-07T14:51:22;99453.03;;;1.15;33.70
46111;BME280;31849;55.992;37.252;2024-03-07T14:56:29;99459.13;;;0.94;34.38
46111;BME280;31849;55.992;37.252;2024-03-07T15:01:34;99451.75;;;0.79;34.53
46111;BME280;31849;55.992;37.252;2024-03-07T15:06:38;99447.94;;;0.68;34.45
46111;BME280;31849;55.992;37.252;2024-03-07T15:11:44;99449.88;;;0.51;35.14
46111;BME280;31849;55.992;37.252;2024-03-07T15:16:48;99443.06;;;0.29;35.67
46111;BME280;31849;55.992;37.252;2024-03-07T15:21:52;99459.72;;;0.19;35.36
46111;BME280;31849;55.992;37.252;2024-03-07T15:26:58;99457.16;;;-0.04;36.51
46111;BME280;31849;55.992;37.252;2024-03-07T15:32:02;99464.81;;;-0.25;37.49
46111;BME280;31849;55.992;37.252;2024-03-07T15:37:11;99466.22;;;-0.52;37.85
46111;BME280;31849;55.992;37.252;2024-03-07T15:42:18;99466.13;;;-0.75;38.96
46111;BME280;31849;55.992;37.252;2024-03-07T15:47:22;99465.56;;;-0.89;39.58
46111;BME280;31849;55.992;37.252;2024-03-07T15:52:26;99460.22;;;-1.13;40.37
46111;BME280;31849;55.992;37.252;2024-03-07T15:57:32;99458.59;;;-1.31;41.01
46111;BME280;31849;55.992;37.252;2024-03-07T16:02:35;99468.72;;;-1.32;41.31
46111;BME280;31849;55.992;37.252;2024-03-07T16:07:40;99472.34;;;-1.47;42.19
46111;BME280;31849;55.992;37.252;2024-03-07T16:12:45;99466.31;;;-1.67;42.80
46111;BME280;31849;55.992;37.252;2024-03-07T16:17:50;99467.59;;;-1.77;42.33
46111;BME280;31849;55.992;37.252;2024-03-07T16:22:55;99470.88;;;-1.79;43.10
46111;BME280;31849;55.992;37.252;2024-03-07T16:28:01;99464.31;;;-1.92;43.59
46111;BME280;31849;55.992;37.252;2024-03-07T16:33:08;99464.66;;;-2.02;43.82
46111;BME280;31849;55.992;37.252;2024-03-07T16:38:12;99456.50;;;-2.13;43.61
46111;BME280;31849;55.992;37.252;2024-03-07T16:43:18;99463.44;;;-2.28;44.69
46111;BME280;31849;55.992;37.252;2024-03-07T16:48:22;99472.88;;;-2.26;44.83
46111;BME280;31849;55.992;37.252;2024-03-07T16:53:26;99453.25;;;-2.45;45.93
46111;BME280;31849;55.992;37.252;2024-03-07T16:58:37;99468.66;;;-2.43;45.93
46111;BME280;31849;55.992;37.252;2024-03-07T17:03:41;99474.16;;;-2.52;46.20
46111;BME280;31849;55.992;37.252;2024-03-07T17:08:45;99467.78;;;-2.60;46.77
46111;BME280;31849;55.992;37.252;2024-03-07T17:13:52;99463.81;;;-2.72;47.44
46111;BME280;31849;55.992;37.252;2024-03-07T17:18:56;99456.25;;;-2.70;47.55
46111;BME280;31849;55.992;37.252;2024-03-07T17:24:01;99461.13;;;-2.75;47.81
46111;BME280;31849;55.992;37.252;2024-03-07T17:29:06;99462.56;;;-2.80;48.13
46111;BME280;31849;55.992;37.252;2024-03-07T17:34:11;99464.81;;;-2.86;48.53
46111;BME280;31849;55.992;37.252;2024-03-07T17:39:16;99449.72;;;-2.99;48.85
46111;BME280;31849;55.992;37.252;2024-03-07T17:44:23;99451.13;;;-3.05;49.39
46111;BME280;31849;55.992;37.252;2024-03-07T17:49:29;99460.28;;;-3.08;49.34
46111;BME280;31849;55.992;37.252;2024-03-07T17:54:33;99460.69;;;-3.17;49.20
46111;BME280;31849;55.992;37.252;2024-03-07T17:59:38;99457.81;;;-3.23;49.30
46111;BME280;31849;55.992;37.252;2024-03-07T18:04:44;99441.59;;;-3.25;49.75
46111;BME280;31849;55.992;37.252;2024-03-07T18:09:52;99444.78;;;-3.29;51.07
46111;BME280;31849;55.992;37.252;2024-03-07T18:14:58;99443.25;;;-3.42;49.47
46111;BME280;31849;55.992;37.252;2024-03-07T18:20:21;99447.41;;;-3.44;50.12
46111;BME280;31849;55.992;37.252;2024-03-07T18:25:29;99440.94;;;-3.54;51.00
46111;BME280;31849;55.992;37.252;2024-03-07T18:30:35;99437.78;;;-3.50;51.13
46111;BME280;31849;55.992;37.252;2024-03-07T18:35:39;99422.47;;;-3.35;51.26
46111;BME280;31849;55.992;37.252;2024-03-07T18:40:45;99413.47;;;-3.12;50.85
46111;BME280;31849;55.992;37.252;2024-03-07T18:45:50;99417.03;;;-2.92;50.64
46111;BME280;31849;55.992;37.252;2024-03-07T18:50:54;99403.25;;;-2.79;51.26
46111;BME280;31849;55.992;37.252;2024-03-07T18:56:00;99397.09;;;-2.66;51.02
46111;BME280;31849;55.992;37.252;2024-03-07T19:01:13;99387.75;;;-2.49;50.23
46111;BME280;31849;55.992;37.252;2024-03-07T19:06:18;99378.84;;;-2.39;49.83
46111;BME280;31849;55.992;37.252;2024-03-07T19:11:22;99363.94;;;-2.32;50.20
46111;BME280;31849;55.992;37.252;2024-03-07T19:16:27;99371.75;;;-2.28;49.64
46111;BME280;31849;55.992;37.252;2024-03-07T19:21:31;99374.50;;;-2.24;49.59
46111;BME280;31849;55.992;37.252;2024-03-07T19:26:40;99365.69;;;-2.31;49.80
46111;BME280;31849;55.992;37.252;2024-03-07T19:31:49;99359.00;;;-2.28;49.94
46111;BME280;31849;55.992;37.252;2024-03-07T19:36:56;99358.47;;;-2.21;50.08
46111;BME280;31849;55.992;37.252;2024-03-07T19:42:00;99353.59;;;-2.35;49.86
46111;BME280;31849;55.992;37.252;2024-03-07T19:47:12;99348.75;;;-2.30;50.38
46111;BME280;31849;55.992;37.252;2024-03-07T19:52:19;99351.56;;;-2.24;49.80
46111;BME280;31849;55.992;37.252;2024-03-07T19:57:23;99343.78;;;-2.27;50.01
46111;BME280;31849;55.992;37.252;2024-03-07T20:02:32;99322.03;;;-2.38;50.40
46111;BME280;31849;55.992;37.252;2024-03-07T20:07:37;99334.78;;;-2.38;50.08
46111;BME280;31849;55.992;37.252;2024-03-07T20:12:41;99332.81;;;-2.44;50.43
46111;BME280;31849;55.992;37.252;2024-03-07T20:17:47;99336.00;;;-2.48;50.81
46111;BME280;31849;55.992;37.252;2024-03-07T20:22:51;99332.94;;;-2.41;50.72
46111;BME280;31849;55.992;37.252;2024-03-07T20:27:55;99329.47;;;-2.43;50.16
46111;BME280;31849;55.992;37.252;2024-03-07T20:33:01;99333.00;;;-2.39;50.90
46111;BME280;31849;55.992;37.252;2024-03-07T20:38:05;99312.00;;;-2.53;50.74
46111;BME280;31849;55.992;37.252;2024-03-07T20:43:14;99309.25;;;-2.58;50.55
46111;BME280;31849;55.992;37.252;2024-03-07T20:48:20;99302.84;;;-2.68;51.36
46111;BME280;31849;55.992;37.252;2024-03-07T20:53:24;99299.50;;;-2.85;51.45
46111;BME280;31849;55.992;37.252;2024-03-07T20:58:32;99303.09;;;-2.97;51.48
46111;BME280;31849;55.992;37.252;2024-03-07T21:03:38;99297.63;;;-3.23;51.34
46111;BME280;31849;55.992;37.252;2024-03-07T21:08:44;99302.66;;;-3.41;52.18
46111;BME280;31849;55.992;37.252;2024-03-07T21:13:47;99301.78;;;-3.58;51.68
46111;BME280;31849;55.992;37.252;2024-03-07T21:18:55;99301.09;;;-3.72;51.84
46111;BME280;31849;55.992;37.252;2024-03-07T21:23:59;99298.00;;;-3.83;51.68
46111;BME280;31849;55.992;37.252;2024-03-07T21:29:03;99258.22;;;-4.15;52.26
46111;BME280;31849;55.992;37.252;2024-03-07T21:34:09;99282.41;;;-4.06;53.20
46111;BME280;31849;55.992;37.252;2024-03-07T21:44:37;99276.94;;;-4.13;52.80
46111;BME280;31849;55.992;37.252;2024-03-07T21:49:42;99275.47;;;-4.25;52.94
46111;BME280;31849;55.992;37.252;2024-03-07T21:54:47;99263.13;;;-4.35;53.44
46111;BME280;31849;55.992;37.252;2024-03-07T21:59:51;99262.50;;;-4.46;53.34
46111;BME280;31849;55.992;37.252;2024-03-07T22:04:58;99259.72;;;-4.50;53.78
46111;BME280;31849;55.992;37.252;2024-03-07T22:10:05;99250.56;;;-4.63;53.86
46111;BME280;31849;55.992;37.252;2024-03-07T22:15:14;99254.69;;;-4.65;53.97
46111;BME280;31849;55.992;37.252;2024-03-07T22:20:21;99246.84;;;-4.70;54.17
46111;BME280;31849;55.992;37.252;2024-03-07T22:25:27;99240.53;;;-4.77;54.34
46111;BME280;31849;55.992;37.252;2024-03-07T22:30:31;99253.88;;;-4.81;53.84
46111;BME280;31849;55.992;37.252;2024-03-07T22:35:37;99242.25;;;-4.92;54.25
46111;BME280;31849;55.992;37.252;2024-03-07T22:40:44;99227.22;;;-5.04;53.97
46111;BME280;31849;55.992;37.252;2024-03-07T22:45:48;99243.69;;;-4.97;54.08
46111;BME280;31849;55.992;37.252;2024-03-07T22:50:53;99233.88;;;-5.06;54.06
46111;BME280;31849;55.992;37.252;2024-03-07T22:55:57;99238.22;;;-5.03;54.04
46111;BME280;31849;55.992;37.252;2024-03-07T23:01:01;99238.16;;;-5.05;54.51
46111;BME280;31849;55.992;37.252;2024-03-07T23:06:08;99238.53;;;-5.14;54.48
46111;BME280;31849;55.992;37.252;2024-03-07T23:11:13;99226.63;;;-5.15;53.73
46111;BME280;31849;55.992;37.252;2024-03-07T23:16:18;99212.31;;;-5.29;55.27
46111;BME280;31849;55.992;37.252;2024-03-07T23:21:24;99203.94;;;-5.28;54.61
46111;BME280;31849;55.992;37.252;2024-03-07T23:26:29;99209.59;;;-5.32;55.41
46111;BME280;31849;55.992;37.252;2024-03-07T23:31:33;99192.81;;;-5.30;55.45
46111;BME280;31849;55.992;37.252;2024-03-07T23:36:38;99193.00;;;-5.27;55.15
46111;BME280;31849;55.992;37.252;2024-03-07T23:41:42;99186.34;;;-5.25;55.45
46111;BME280;31849;55.992;37.252;2024-03-07T23:46:46;99194.03;;;-5.23;55.28
46111;BME280;31849;55.992;37.252;2024-03-07T23:51:51;99181.03;;;-5.30;55.66
46111;BME280;31849;55.992;37.252;2024-03-07T23:56:57;99171.75;;;-5.29;55.77
